Point Washington, Florida
Current Conditions -  °F | °C
As of 9:53 AM on Saturday 22 Nov 2014 (Local Time) from KECP Reporting Station
Broken Clouds Broken Clouds  
Wind Chill: 65°   Ceiling: 6000
Heat Index: 65°   Visibility: 10mi
Dew Point: 50°   Wind: 9mph
Humidity: 58%   Direction: 70°ENE
Pressure: 30.28"   Gusts: NA
Location:  30.37°N, 86.11°W
Report Text: KECP 221553Z 07008KT 10SM SCT036 BKN060 18/10 A3028 RMK AO2 SLP266 T01830100 $
Loading
Personal Weather Stations






























Interactive Weather Map New forecast layout! Learn more

10-Day Weather Forecast

Advertisements
Track Severe Weather on mobile